sensor_id;sensor_type;location;lat;lon;timestamp;temperature;humidity
44607;DHT22;30315;46.072;14.474;2023-04-01T00:01:32;11.90;84.00
44607;DHT22;30315;46.072;14.474;2023-04-01T00:03:58;11.90;84.30
44607;DHT22;30315;46.072;14.474;2023-04-01T00:06:28;11.90;84.20
44607;DHT22;30315;46.072;14.474;2023-04-01T00:08:56;11.80;83.90
44607;DHT22;30315;46.072;14.474;2023-04-01T00:11:23;11.80;84.00
44607;DHT22;30315;46.072;14.474;2023-04-01T00:13:50;11.80;84.10
44607;DHT22;30315;46.072;14.474;2023-04-01T00:16:17;11.80;84.30
44607;DHT22;30315;46.072;14.474;2023-04-01T00:18:49;11.40;84.30
44607;DHT22;30315;46.072;14.474;2023-04-01T00:21:18;11.70;85.30
44607;DHT22;30315;46.072;14.474;2023-04-01T00:23:45;11.70;85.60
44607;DHT22;30315;46.072;14.474;2023-04-01T00:26:12;11.70;86.00
44607;DHT22;30315;46.072;14.474;2023-04-01T00:28:41;11.60;85.40
44607;DHT22;30315;46.072;14.474;2023-04-01T00:31:09;11.60;84.80
44607;DHT22;30315;46.072;14.474;2023-04-01T00:33:38;11.60;84.60
44607;DHT22;30315;46.072;14.474;2023-04-01T00:36:13;11.70;84.60
44607;DHT22;30315;46.072;14.474;2023-04-01T00:38:42;11.60;84.30
44607;DHT22;30315;46.072;14.474;2023-04-01T00:41:10;11.60;84.30
44607;DHT22;30315;46.072;14.474;2023-04-01T00:43:43;11.60;83.90
44607;DHT22;30315;46.072;14.474;2023-04-01T00:46:11;11.50;83.80
44607;DHT22;30315;46.072;14.474;2023-04-01T00:48:41;11.50;83.80
44607;DHT22;30315;46.072;14.474;2023-04-01T00:51:15;11.50;83.70
44607;DHT22;30315;46.072;14.474;2023-04-01T00:53:46;11.40;83.70
44607;DHT22;30315;46.072;14.474;2023-04-01T00:56:18;11.40;83.50
44607;DHT22;30315;46.072;14.474;2023-04-01T00:58:58;11.30;83.40
44607;DHT22;30315;46.072;14.474;2023-04-01T01:01:26;11.30;83.60
44607;DHT22;30315;46.072;14.474;2023-04-01T01:03:54;11.30;83.40
44607;DHT22;30315;46.072;14.474;2023-04-01T01:12:21;11.20;83.40
44607;DHT22;30315;46.072;14.474;2023-04-01T01:21:04;11.00;82.70
44607;DHT22;30315;46.072;14.474;2023-04-01T01:35:22;10.80;83.40
44607;DHT22;30315;46.072;14.474;2023-04-01T01:37:56;10.80;83.80
44607;DHT22;30315;46.072;14.474;2023-04-01T01:40:26;10.80;83.50
44607;DHT22;30315;46.072;14.474;2023-04-01T01:42:57;10.80;83.40
44607;DHT22;30315;46.072;14.474;2023-04-01T01:45:26;10.70;83.10
44607;DHT22;30315;46.072;14.474;2023-04-01T01:47:55;10.80;83.20
44607;DHT22;30315;46.072;14.474;2023-04-01T01:50:23;10.80;83.20
44607;DHT22;30315;46.072;14.474;2023-04-01T01:52:51;10.80;83.20
44607;DHT22;30315;46.072;14.474;2023-04-01T01:55:31;10.80;83.20
44607;DHT22;30315;46.072;14.474;2023-04-01T01:58:05;10.80;83.40
44607;DHT22;30315;46.072;14.474;2023-04-01T02:00:37;10.80;83.50
44607;DHT22;30315;46.072;14.474;2023-04-01T02:03:05;10.80;83.50
44607;DHT22;30315;46.072;14.474;2023-04-01T02:05:32;10.80;83.60
44607;DHT22;30315;46.072;14.474;2023-04-01T02:08:16;10.70;83.30
44607;DHT22;30315;46.072;14.474;2023-04-01T02:10:56;10.70;83.40
44607;DHT22;30315;46.072;14.474;2023-04-01T02:14:35;10.70;83.50
44607;DHT22;30315;46.072;14.474;2023-04-01T02:16:39;10.70;83.40
44607;DHT22;30315;46.072;14.474;2023-04-01T02:21:59;10.70;83.20
44607;DHT22;30315;46.072;14.474;2023-04-01T02:24:31;10.70;83.50
44607;DHT22;30315;46.072;14.474;2023-04-01T02:26:59;10.70;83.90
44607;DHT22;30315;46.072;14.474;2023-04-01T02:29:27;10.60;83.90
44607;DHT22;30315;46.072;14.474;2023-04-01T02:31:55;10.60;84.00
44607;DHT22;30315;46.072;14.474;2023-04-01T02:34:23;10.40;84.00
44607;DHT22;30315;46.072;14.474;2023-04-01T02:36:51;10.60;84.30
44607;DHT22;30315;46.072;14.474;2023-04-01T02:39:19;10.60;84.50
44607;DHT22;30315;46.072;14.474;2023-04-01T02:41:46;10.60;84.60
44607;DHT22;30315;46.072;14.474;2023-04-01T02:44:14;10.60;84.50
44607;DHT22;30315;46.072;14.474;2023-04-01T02:46:43;10.50;84.40
44607;DHT22;30315;46.072;14.474;2023-04-01T02:49:10;10.60;84.30
44607;DHT22;30315;46.072;14.474;2023-04-01T02:51:37;10.50;83.90
44607;DHT22;30315;46.072;14.474;2023-04-01T02:54:04;10.50;83.40
44607;DHT22;30315;46.072;14.474;2023-04-01T02:56:31;10.50;82.80
44607;DHT22;30315;46.072;14.474;2023-04-01T02:58:58;10.40;82.60
44607;DHT22;30315;46.072;14.474;2023-04-01T03:01:25;10.40;83.10
44607;DHT22;30315;46.072;14.474;2023-04-01T03:03:52;10.30;82.90
44607;DHT22;30315;46.072;14.474;2023-04-01T03:06:19;10.30;83.00
44607;DHT22;30315;46.072;14.474;2023-04-01T03:08:45;10.30;83.10
44607;DHT22;30315;46.072;14.474;2023-04-01T03:11:13;10.20;83.20
44607;DHT22;30315;46.072;14.474;2023-04-01T03:13:40;10.20;83.50
44607;DHT22;30315;46.072;14.474;2023-04-01T03:16:08;10.20;83.50
44607;DHT22;30315;46.072;14.474;2023-04-01T03:18:36;10.20;83.40
44607;DHT22;30315;46.072;14.474;2023-04-01T03:21:16;10.20;83.50
44607;DHT22;30315;46.072;14.474;2023-04-01T03:23:44;10.20;83.00
44607;DHT22;30315;46.072;14.474;2023-04-01T03:26:11;10.10;83.20
44607;DHT22;30315;46.072;14.474;2023-04-01T03:28:38;10.10;83.30
44607;DHT22;30315;46.072;14.474;2023-04-01T03:31:05;10.20;83.60
44607;DHT22;30315;46.072;14.474;2023-04-01T03:33:39;10.10;83.60
44607;DHT22;30315;46.072;14.474;2023-04-01T03:36:07;10.10;83.70
44607;DHT22;30315;46.072;14.474;2023-04-01T03:38:35;10.10;83.50
44607;DHT22;30315;46.072;14.474;2023-04-01T03:41:02;10.10;83.40
44607;DHT22;30315;46.072;14.474;2023-04-01T03:43:32;10.10;83.90
44607;DHT22;30315;46.072;14.474;2023-04-01T03:45:59;10.00;83.70
44607;DHT22;30315;46.072;14.474;2023-04-01T03:48:26;10.00;83.50
44607;DHT22;30315;46.072;14.474;2023-04-01T03:50:53;10.00;83.60
44607;DHT22;30315;46.072;14.474;2023-04-01T03:53:21;10.00;83.60
44607;DHT22;30315;46.072;14.474;2023-04-01T03:55:48;10.00;83.50
44607;DHT22;30315;46.072;14.474;2023-04-01T03:58:17;9.90;84.50
44607;DHT22;30315;46.072;14.474;2023-04-01T04:00:45;9.90;84.50
44607;DHT22;30315;46.072;14.474;2023-04-01T04:03:12;9.90;84.50
44607;DHT22;30315;46.072;14.474;2023-04-01T04:05:46;9.80;84.50
44607;DHT22;30315;46.072;14.474;2023-04-01T04:08:15;9.80;84.40
44607;DHT22;30315;46.072;14.474;2023-04-01T04:10:43;9.80;84.40
44607;DHT22;30315;46.072;14.474;2023-04-01T04:13:10;9.90;84.70
44607;DHT22;30315;46.072;14.474;2023-04-01T04:15:43;9.70;84.20
44607;DHT22;30315;46.072;14.474;2023-04-01T04:18:11;9.70;84.20
44607;DHT22;30315;46.072;14.474;2023-04-01T04:20:44;9.60;84.10
44607;DHT22;30315;46.072;14.474;2023-04-01T04:23:12;9.60;84.50
44607;DHT22;30315;46.072;14.474;2023-04-01T04:25:41;9.60;84.50
44607;DHT22;30315;46.072;14.474;2023-04-01T04:28:08;9.60;84.40
44607;DHT22;30315;46.072;14.474;2023-04-01T04:30:35;9.60;84.70
44607;DHT22;30315;46.072;14.474;2023-04-01T04:33:03;9.60;84.50
44607;DHT22;30315;46.072;14.474;2023-04-01T04:35:30;9.50;84.50
44607;DHT22;30315;46.072;14.474;2023-04-01T04:37:57;9.50;84.50
44607;DHT22;30315;46.072;14.474;2023-04-01T04:40:25;9.50;84.40
44607;DHT22;30315;46.072;14.474;2023-04-01T04:42:51;9.50;84.10
44607;DHT22;30315;46.072;14.474;2023-04-01T04:45:19;9.40;83.70
44607;DHT22;30315;46.072;14.474;2023-04-01T04:47:53;9.40;83.80
44607;DHT22;30315;46.072;14.474;2023-04-01T04:50:20;9.40;83.70
44607;DHT22;30315;46.072;14.474;2023-04-01T04:52:47;9.40;83.80
44607;DHT22;30315;46.072;14.474;2023-04-01T04:55:14;9.40;84.00
44607;DHT22;30315;46.072;14.474;2023-04-01T04:57:45;9.30;83.90
44607;DHT22;30315;46.072;14.474;2023-04-01T05:00:12;9.30;83.70
44607;DHT22;30315;46.072;14.474;2023-04-01T05:02:47;9.30;83.60
44607;DHT22;30315;46.072;14.474;2023-04-01T05:05:14;9.30;83.60
44607;DHT22;30315;46.072;14.474;2023-04-01T05:07:41;9.20;83.40
44607;DHT22;30315;46.072;14.474;2023-04-01T05:10:08;9.20;83.50
44607;DHT22;30315;46.072;14.474;2023-04-01T05:12:36;9.20;83.20
44607;DHT22;30315;46.072;14.474;2023-04-01T05:15:08;9.20;83.00
44607;DHT22;30315;46.072;14.474;2023-04-01T05:17:36;9.20;83.00
44607;DHT22;30315;46.072;14.474;2023-04-01T05:20:04;9.10;82.80
44607;DHT22;30315;46.072;14.474;2023-04-01T05:22:31;9.10;83.10
44607;DHT22;30315;46.072;14.474;2023-04-01T05:24:58;9.10;82.50
44607;DHT22;30315;46.072;14.474;2023-04-01T05:27:25;9.10;82.00
44607;DHT22;30315;46.072;14.474;2023-04-01T05:29:52;9.00;82.10
44607;DHT22;30315;46.072;14.474;2023-04-01T05:32:48;9.00;82.30
44607;DHT22;30315;46.072;14.474;2023-04-01T05:35:16;9.00;82.60
44607;DHT22;30315;46.072;14.474;2023-04-01T05:37:43;9.00;82.90
44607;DHT22;30315;46.072;14.474;2023-04-01T05:40:10;9.00;83.60
44607;DHT22;30315;46.072;14.474;2023-04-01T05:42:37;9.00;83.90
44607;DHT22;30315;46.072;14.474;2023-04-01T05:45:05;9.00;84.50
44607;DHT22;30315;46.072;14.474;2023-04-01T05:47:51;9.10;84.90
44607;DHT22;30315;46.072;14.474;2023-04-01T05:50:18;9.10;84.90
44607;DHT22;30315;46.072;14.474;2023-04-01T05:52:46;9.10;84.90
44607;DHT22;30315;46.072;14.474;2023-04-01T05:55:13;9.30;85.80
44607;DHT22;30315;46.072;14.474;2023-04-01T05:57:40;9.30;86.40
44607;DHT22;30315;46.072;14.474;2023-04-01T06:00:08;9.30;86.70
44607;DHT22;30315;46.072;14.474;2023-04-01T06:02:40;9.30;87.10
44607;DHT22;30315;46.072;14.474;2023-04-01T06:05:21;9.50;87.50
44607;DHT22;30315;46.072;14.474;2023-04-01T06:07:55;9.60;88.60
44607;DHT22;30315;46.072;14.474;2023-04-01T06:10:36;9.70;88.00
44607;DHT22;30315;46.072;14.474;2023-04-01T06:19:04;10.00;86.30
44607;DHT22;30315;46.072;14.474;2023-04-01T06:21:55;9.60;86.50
44607;DHT22;30315;46.072;14.474;2023-04-01T06:27:59;10.10;85.30
44607;DHT22;30315;46.072;14.474;2023-04-01T06:30:57;10.20;85.40
44607;DHT22;30315;46.072;14.474;2023-04-01T06:33:38;10.20;85.40
44607;DHT22;30315;46.072;14.474;2023-04-01T06:51:31;10.50;85.40
44607;DHT22;30315;46.072;14.474;2023-04-01T06:54:07;10.60;85.70
44607;DHT22;30315;46.072;14.474;2023-04-01T06:56:59;10.70;85.60
44607;DHT22;30315;46.072;14.474;2023-04-01T06:59:33;10.80;85.30
44607;DHT22;30315;46.072;14.474;2023-04-01T07:02:38;10.80;84.90
44607;DHT22;30315;46.072;14.474;2023-04-01T07:05:07;10.80;84.60
44607;DHT22;30315;46.072;14.474;2023-04-01T07:07:35;10.90;84.70
44607;DHT22;30315;46.072;14.474;2023-04-01T07:10:20;10.90;84.90
44607;DHT22;30315;46.072;14.474;2023-04-01T07:13:13;11.00;85.20
44607;DHT22;30315;46.072;14.474;2023-04-01T07:16:12;11.10;85.50
44607;DHT22;30315;46.072;14.474;2023-04-01T07:19:06;11.20;85.70
44607;DHT22;30315;46.072;14.474;2023-04-01T07:22:02;11.40;85.70
44607;DHT22;30315;46.072;14.474;2023-04-01T07:24:50;11.50;85.40
44607;DHT22;30315;46.072;14.474;2023-04-01T07:27:18;11.60;84.80
44607;DHT22;30315;46.072;14.474;2023-04-01T07:29:45;11.70;84.40
44607;DHT22;30315;46.072;14.474;2023-04-01T07:32:40;11.80;84.40
44607;DHT22;30315;46.072;14.474;2023-04-01T07:40:58;12.30;84.10
44607;DHT22;30315;46.072;14.474;2023-04-01T07:49:25;12.70;83.30
44607;DHT22;30315;46.072;14.474;2023-04-01T07:52:27;12.70;83.00
44607;DHT22;30315;46.072;14.474;2023-04-01T07:57:55;12.80;82.40
44607;DHT22;30315;46.072;14.474;2023-04-01T08:00:37;12.90;82.30
44607;DHT22;30315;46.072;14.474;2023-04-01T08:03:33;13.00;82.10
44607;DHT22;30315;46.072;14.474;2023-04-01T08:15:59;13.00;81.50
44607;DHT22;30315;46.072;14.474;2023-04-01T08:18:54;13.00;81.10
44607;DHT22;30315;46.072;14.474;2023-04-01T08:21:37;13.10;80.90
44607;DHT22;30315;46.072;14.474;2023-04-01T08:30:26;13.20;80.90
44607;DHT22;30315;46.072;14.474;2023-04-01T08:33:09;13.20;81.00
44607;DHT22;30315;46.072;14.474;2023-04-01T08:35:43;13.30;81.00
44607;DHT22;30315;46.072;14.474;2023-04-01T08:38:19;13.40;80.90
44607;DHT22;30315;46.072;14.474;2023-04-01T08:40:58;13.50;80.30
44607;DHT22;30315;46.072;14.474;2023-04-01T08:46:46;13.60;79.70
44607;DHT22;30315;46.072;14.474;2023-04-01T08:53:06;13.60;78.60
44607;DHT22;30315;46.072;14.474;2023-04-01T09:13:16;14.00;78.20
44607;DHT22;30315;46.072;14.474;2023-04-01T09:31:59;14.90;77.90
44607;DHT22;30315;46.072;14.474;2023-04-01T09:38:12;15.00;75.90
44607;DHT22;30315;46.072;14.474;2023-04-01T09:41:06;15.00;75.50
44607;DHT22;30315;46.072;14.474;2023-04-01T09:52:25;15.20;73.90
44607;DHT22;30315;46.072;14.474;2023-04-01T10:06:50;15.30;73.90
44607;DHT22;30315;46.072;14.474;2023-04-01T10:15:45;15.30;73.80
44607;DHT22;30315;46.072;14.474;2023-04-01T10:36:35;15.30;74.10
44607;DHT22;30315;46.072;14.474;2023-04-01T11:00:36;15.60;74.10
44607;DHT22;30315;46.072;14.474;2023-04-01T11:17:49;16.10;72.20
44607;DHT22;30315;46.072;14.474;2023-04-01T11:20:39;16.20;73.60
44607;DHT22;30315;46.072;14.474;2023-04-01T11:23:35;16.40;75.20
44607;DHT22;30315;46.072;14.474;2023-04-01T11:32:54;16.90;74.10
44607;DHT22;30315;46.072;14.474;2023-04-01T11:38:39;17.10;73.20
44607;DHT22;30315;46.072;14.474;2023-04-01T12:04:06;17.80;69.20
44607;DHT22;30315;46.072;14.474;2023-04-01T12:06:51;18.00;68.70
44607;DHT22;30315;46.072;14.474;2023-04-01T12:12:36;18.40;69.80
44607;DHT22;30315;46.072;14.474;2023-04-01T12:16:00;18.70;68.60
44607;DHT22;30315;46.072;14.474;2023-04-01T12:18:33;19.00;67.20
44607;DHT22;30315;46.072;14.474;2023-04-01T12:27:19;19.80;64.40
44607;DHT22;30315;46.072;14.474;2023-04-01T12:32:25;20.20;61.30
44607;DHT22;30315;46.072;14.474;2023-04-01T12:43:34;21.10;59.60
44607;DHT22;30315;46.072;14.474;2023-04-01T12:49:17;21.50;57.80
44607;DHT22;30315;46.072;14.474;2023-04-01T12:56:54;21.90;55.20
44607;DHT22;30315;46.072;14.474;2023-04-01T13:08:07;21.80;54.50
44607;DHT22;30315;46.072;14.474;2023-04-01T13:15:57;22.20;53.80
44607;DHT22;30315;46.072;14.474;2023-04-01T13:21:10;22.20;52.20
44607;DHT22;30315;46.072;14.474;2023-04-01T13:23:45;22.00;52.70
44607;DHT22;30315;46.072;14.474;2023-04-01T13:26:22;21.80;53.40
44607;DHT22;30315;46.072;14.474;2023-04-01T13:42:57;19.80;63.20
44607;DHT22;30315;46.072;14.474;2023-04-01T13:45:56;19.50;62.70
44607;DHT22;30315;46.072;14.474;2023-04-01T13:53:41;18.50;60.60
44607;DHT22;30315;46.072;14.474;2023-04-01T14:01:52;18.30;62.10
44607;DHT22;30315;46.072;14.474;2023-04-01T14:07:51;18.10;64.10
44607;DHT22;30315;46.072;14.474;2023-04-01T14:13:34;18.10;65.50
44607;DHT22;30315;46.072;14.474;2023-04-01T14:16:06;18.10;65.70
44607;DHT22;30315;46.072;14.474;2023-04-01T14:21:37;17.80;66.80
44607;DHT22;30315;46.072;14.474;2023-04-01T14:27:09;17.50;67.00
44607;DHT22;30315;46.072;14.474;2023-04-01T14:49:38;18.20;69.20
44607;DHT22;30315;46.072;14.474;2023-04-01T14:54:49;18.50;67.70
44607;DHT22;30315;46.072;14.474;2023-04-01T15:02:56;18.70;65.10
44607;DHT22;30315;46.072;14.474;2023-04-01T15:05:52;18.80;64.70
44607;DHT22;30315;46.072;14.474;2023-04-01T15:08:33;18.80;64.60
44607;DHT22;30315;46.072;14.474;2023-04-01T15:28:16;19.10;65.70
44607;DHT22;30315;46.072;14.474;2023-04-01T15:31:09;19.20;64.50
44607;DHT22;30315;46.072;14.474;2023-04-01T15:34:15;19.30;63.30
44607;DHT22;30315;46.072;14.474;2023-04-01T15:36:57;19.40;62.60
44607;DHT22;30315;46.072;14.474;2023-04-01T15:48:27;19.30;63.10
44607;DHT22;30315;46.072;14.474;2023-04-01T15:51:08;19.30;63.10
44607;DHT22;30315;46.072;14.474;2023-04-01T15:56:30;19.40;63.30
44607;DHT22;30315;46.072;14.474;2023-04-01T16:02:30;19.40;61.80
44607;DHT22;30315;46.072;14.474;2023-04-01T16:14:33;18.90;58.50
44607;DHT22;30315;46.072;14.474;2023-04-01T16:17:04;18.90;58.90
44607;DHT22;30315;46.072;14.474;2023-04-01T16:19:44;18.90;59.10
44607;DHT22;30315;46.072;14.474;2023-04-01T16:25:26;18.80;58.90
44607;DHT22;30315;46.072;14.474;2023-04-01T16:28:32;18.60;56.90
44607;DHT22;30315;46.072;14.474;2023-04-01T16:31:14;18.60;57.30
44607;DHT22;30315;46.072;14.474;2023-04-01T16:47:46;18.10;50.50
44607;DHT22;30315;46.072;14.474;2023-04-01T16:50:24;18.10;50.30
44607;DHT22;30315;46.072;14.474;2023-04-01T16:53:40;18.10;49.60
44607;DHT22;30315;46.072;14.474;2023-04-01T16:56:16;18.00;48.70
44607;DHT22;30315;46.072;14.474;2023-04-01T17:01:30;18.00;49.50
44607;DHT22;30315;46.072;14.474;2023-04-01T17:04:07;18.00;49.10
44607;DHT22;30315;46.072;14.474;2023-04-01T17:06:49;18.00;50.00
44607;DHT22;30315;46.072;14.474;2023-04-01T17:12:40;18.00;52.30
44607;DHT22;30315;46.072;14.474;2023-04-01T17:15:21;18.00;52.80
44607;DHT22;30315;46.072;14.474;2023-04-01T17:20:53;18.00;53.80
44607;DHT22;30315;46.072;14.474;2023-04-01T17:42:07;17.20;56.60
44607;DHT22;30315;46.072;14.474;2023-04-01T17:45:01;17.10;56.80
44607;DHT22;30315;46.072;14.474;2023-04-01T17:50:23;16.80;56.90
44607;DHT22;30315;46.072;14.474;2023-04-01T17:53:18;16.70;57.50
44607;DHT22;30315;46.072;14.474;2023-04-01T17:58:19;16.50;58.00
44607;DHT22;30315;46.072;14.474;2023-04-01T18:17:24;15.90;60.30
44607;DHT22;30315;46.072;14.474;2023-04-01T18:20:15;15.80;60.80
44607;DHT22;30315;46.072;14.474;2023-04-01T18:30:43;15.40;61.20
44607;DHT22;30315;46.072;14.474;2023-04-01T18:35:51;15.30;61.80
44607;DHT22;30315;46.072;14.474;2023-04-01T18:38:33;15.20;62.20
44607;DHT22;30315;46.072;14.474;2023-04-01T18:41:20;14.80;61.90
44607;DHT22;30315;46.072;14.474;2023-04-01T19:00:47;14.80;63.90
44607;DHT22;30315;46.072;14.474;2023-04-01T19:03:23;14.70;63.80
44607;DHT22;30315;46.072;14.474;2023-04-01T19:05:53;14.60;63.90
44607;DHT22;30315;46.072;14.474;2023-04-01T19:08:31;14.60;64.20
44607;DHT22;30315;46.072;14.474;2023-04-01T19:14:19;14.50;64.50
44607;DHT22;30315;46.072;14.474;2023-04-01T19:19:36;14.40;65.50
44607;DHT22;30315;46.072;14.474;2023-04-01T19:22:32;14.40;65.70
44607;DHT22;30315;46.072;14.474;2023-04-01T19:28:16;14.30;65.90
44607;DHT22;30315;46.072;14.474;2023-04-01T19:30:54;14.20;66.30
44607;DHT22;30315;46.072;14.474;2023-04-01T19:33:43;14.10;66.70
44607;DHT22;30315;46.072;14.474;2023-04-01T19:38:39;14.00;66.60
44607;DHT22;30315;46.072;14.474;2023-04-01T19:41:14;14.00;67.00
44607;DHT22;30315;46.072;14.474;2023-04-01T19:46:43;13.90;67.50
44607;DHT22;30315;46.072;14.474;2023-04-01T19:52:33;13.90;68.20
44607;DHT22;30315;46.072;14.474;2023-04-01T20:00:53;13.70;68.30
44607;DHT22;30315;46.072;14.474;2023-04-01T20:03:25;13.70;68.70
44607;DHT22;30315;46.072;14.474;2023-04-01T20:06:18;13.60;68.80
44607;DHT22;30315;46.072;14.474;2023-04-01T20:17:20;13.40;68.60
44607;DHT22;30315;46.072;14.474;2023-04-01T20:20:21;13.30;68.80
44607;DHT22;30315;46.072;14.474;2023-04-01T20:28:36;13.20;68.80
44607;DHT22;30315;46.072;14.474;2023-04-01T20:36:33;13.10;69.30
44607;DHT22;30315;46.072;14.474;2023-04-01T20:46:48;13.00;69.60
44607;DHT22;30315;46.072;14.474;2023-04-01T20:55:29;12.90;69.50
44607;DHT22;30315;46.072;14.474;2023-04-01T20:58:06;12.80;69.60
44607;DHT22;30315;46.072;14.474;2023-04-01T21:03:23;12.70;69.90
44607;DHT22;30315;46.072;14.474;2023-04-01T21:14:40;12.60;69.90
44607;DHT22;30315;46.072;14.474;2023-04-01T21:39:46;12.30;70.80
44607;DHT22;30315;46.072;14.474;2023-04-01T21:45:24;12.30;70.90
44607;DHT22;30315;46.072;14.474;2023-04-01T21:48:22;12.30;70.80
44607;DHT22;30315;46.072;14.474;2023-04-01T22:05:25;12.40;70.70
44607;DHT22;30315;46.072;14.474;2023-04-01T22:10:41;12.30;70.30
44607;DHT22;30315;46.072;14.474;2023-04-01T22:13:17;12.30;70.40
44607;DHT22;30315;46.072;14.474;2023-04-01T22:16:08;12.30;70.50
44607;DHT22;30315;46.072;14.474;2023-04-01T22:19:24;12.30;70.60
44607;DHT22;30315;46.072;14.474;2023-04-01T22:27:24;12.30;70.70
44607;DHT22;30315;46.072;14.474;2023-04-01T22:33:13;12.20;70.70
44607;DHT22;30315;46.072;14.474;2023-04-01T22:36:09;12.20;70.80
44607;DHT22;30315;46.072;14.474;2023-04-01T22:48:05;12.00;71.10
44607;DHT22;30315;46.072;14.474;2023-04-01T22:50:40;11.90;71.20
44607;DHT22;30315;46.072;14.474;2023-04-01T22:56:12;11.80;72.10
44607;DHT22;30315;46.072;14.474;2023-04-01T22:59:17;11.80;71.40
44607;DHT22;30315;46.072;14.474;2023-04-01T23:02:07;11.60;71.10
44607;DHT22;30315;46.072;14.474;2023-04-01T23:04:43;11.70;70.70
44607;DHT22;30315;46.072;14.474;2023-04-01T23:07:38;11.60;70.60
44607;DHT22;30315;46.072;14.474;2023-04-01T23:13:24;11.40;70.90
44607;DHT22;30315;46.072;14.474;2023-04-01T23:15:54;11.30;70.70
44607;DHT22;30315;46.072;14.474;2023-04-01T23:18:34;11.30;71.10
44607;DHT22;30315;46.072;14.474;2023-04-01T23:21:18;11.30;71.20
44607;DHT22;30315;46.072;14.474;2023-04-01T23:24:02;11.30;71.40
44607;DHT22;30315;46.072;14.474;2023-04-01T23:29:40;11.30;71.60
44607;DHT22;30315;46.072;14.474;2023-04-01T23:32:19;11.30;71.80
44607;DHT22;30315;46.072;14.474;2023-04-01T23:34:49;11.30;71.90
44607;DHT22;30315;46.072;14.474;2023-04-01T23:37:18;11.30;72.00
44607;DHT22;30315;46.072;14.474;2023-04-01T23:39:53;11.30;72.10
44607;DHT22;30315;46.072;14.474;2023-04-01T23:42:30;11.30;72.30
44607;DHT22;30315;46.072;14.474;2023-04-01T23:45:02;11.30;72.60
44607;DHT22;30315;46.072;14.474;2023-04-01T23:47:36;11.30;72.60
44607;DHT22;30315;46.072;14.474;2023-04-01T23:50:45;11.30;72.50
44607;DHT22;30315;46.072;14.474;2023-04-01T23:53:24;11.30;72.50
44607;DHT22;30315;46.072;14.474;2023-04-01T23:55:52;11.30;72.60
44607;DHT22;30315;46.072;14.474;2023-04-01T23:58:27;11.30;72.40
